Terminal Aerodrome Forecast
Issued by NWS

Home | Current Version | Previous Version | Text Only | Print | Product List | Glossary On
Versions: 1 2 3 4 5 6 7 8 9 10 11 12 13
018
FTUS46 KPDT 192320
TAFPSC
TAF
KPSC 192320Z 2000/2024 22015KT P6SM OVC120
     FM200600 20012KT P6SM -RA OVC060
     FM202000 25015G24KT P6SM VCSH SCT070 BKN120=

USA.gov is the U.S. government's official web portal to all federal, state and local government web resources and services.